Orbital elements of FREGAT DEB
| Launched | 17 July 2011 |
| Flight ended | – |
| Launch site | Tyuratam Missile and Space Center, Kazakhstan (Also known as Baikonur Cosmodrome) |
| Owner | Commonwealth of Independent States (former USSR) |
| NORAD ID | 45944 |
| Date fetched |
Epoch osculation |
Inc. [°] |
Ecc. | RA asc node [hr] |
Arg Peri. [°] |
Mean anom [°] |
Mean motion [rev/day] |
Abs. mag |
| Date fetched |
Epoch osculation |
Inc. [°] |
Ecc. | RA asc node [hr] |
Arg Peri. [°] |
Mean anom [°] |
Mean motion [rev/day] |
Abs. mag |
| 2026 May 08 17:57 | 2026 May 05 08:20:36 | 51.1290 | 0.22288 | 7.5816 | 116.6846 | 267.8899 | 9.70565 | – |
| 2026 May 07 17:58 | 2026 May 05 08:20:36 | 51.1290 | 0.22288 | 7.5816 | 116.6846 | 267.8899 | 9.70565 | – |
| 2026 May 06 17:57 | 2026 May 05 08:20:36 | 51.1290 | 0.22288 | 7.5816 | 116.6846 | 267.8899 | 9.70565 | – |
| 2026 May 05 17:57 | 2026 May 05 08:20:36 | 51.1290 | 0.22288 | 7.5816 | 116.6846 | 267.8899 | 9.70565 | – |
| 2026 May 04 17:57 | 2026 Apr 30 09:42:10 | 51.1304 | 0.22289 | 8.1948 | 109.6305 | 267.8899 | 9.70565 | – |
| 2026 May 03 17:57 | 2026 Apr 30 09:42:10 | 51.1304 | 0.22289 | 8.1948 | 109.6305 | 267.8899 | 9.70565 | – |
| 2026 May 02 17:57 | 2026 Apr 30 09:42:10 | 51.1304 | 0.22289 | 8.1948 | 109.6305 | 267.8899 | 9.70565 | – |
| 2026 May 01 17:56 | 2026 Apr 30 09:42:10 | 51.1304 | 0.22289 | 8.1948 | 109.6305 | 267.8899 | 9.70565 | – |
| 2026 Apr 30 17:56 | 2026 Apr 30 09:42:10 | 51.1304 | 0.22289 | 8.1948 | 109.6305 | 267.8899 | 9.70565 | – |
| 2026 Apr 29 17:57 | 2026 Apr 24 07:52:02 | 51.1313 | 0.22295 | 8.9482 | 100.9942 | 267.8899 | 9.70565 | – |
| 2026 Apr 28 17:56 | 2026 Apr 24 07:52:02 | 51.1313 | 0.22295 | 8.9482 | 100.9942 | 267.8899 | 9.70565 | – |
| 2026 Apr 27 17:58 | 2026 Apr 24 07:52:02 | 51.1313 | 0.22295 | 8.9482 | 100.9942 | 267.8899 | 9.70565 | – |
| 2026 Apr 26 17:58 | 2026 Apr 24 07:52:02 | 51.1313 | 0.22295 | 8.9482 | 100.9942 | 267.8899 | 9.70565 | – |
| 2026 Apr 25 17:58 | 2026 Apr 24 07:52:02 | 51.1313 | 0.22295 | 8.9482 | 100.9942 | 267.8899 | 9.70565 | – |
| 2026 Apr 24 17:59 | 2026 Apr 24 07:52:02 | 51.1313 | 0.22295 | 8.9482 | 100.9942 | 267.8899 | 9.70565 | – |
| 2026 Apr 23 17:57 | 2026 Apr 19 11:41:21 | 51.1314 | 0.22304 | 9.5486 | 94.0846 | 267.8899 | 9.70565 | – |
| 2026 Apr 22 17:57 | 2026 Apr 19 11:41:21 | 51.1314 | 0.22304 | 9.5486 | 94.0846 | 267.8899 | 9.70565 | – |
| 2026 Apr 21 17:57 | 2026 Apr 19 11:41:21 | 51.1314 | 0.22304 | 9.5486 | 94.0846 | 267.8899 | 9.70565 | – |
| 2026 Apr 20 17:57 | 2026 Apr 19 11:41:21 | 51.1314 | 0.22304 | 9.5486 | 94.0846 | 267.8899 | 9.70565 | – |
| 2026 Apr 19 17:58 | 2026 Apr 19 11:41:21 | 51.1314 | 0.22304 | 9.5486 | 94.0846 | 267.8899 | 9.70565 | – |
| 2026 Apr 18 17:56 | 2026 Apr 12 04:10:53 | 51.1356 | 0.22328 | 10.4564 | 83.6465 | 267.8899 | 9.70565 | – |
| 2026 Apr 16 17:57 | 2026 Apr 12 04:10:53 | 51.1356 | 0.22328 | 10.4564 | 83.6465 | 267.8899 | 9.70565 | – |
| 2026 Apr 14 17:57 | 2026 Apr 12 04:10:53 | 51.1356 | 0.22328 | 10.4564 | 83.6465 | 267.8899 | 9.70565 | – |
| 2026 Apr 13 17:57 | 2026 Apr 12 04:10:53 | 51.1356 | 0.22328 | 10.4564 | 83.6465 | 267.8899 | 9.70565 | – |
| 2026 Apr 12 17:57 | 2026 Apr 08 11:11:23 | 51.1314 | 0.22342 | 10.9163 | 78.3755 | 267.8899 | 9.70565 | – |
| 2026 Apr 11 17:57 | 2026 Apr 08 11:11:23 | 51.1314 | 0.22342 | 10.9163 | 78.3755 | 267.8899 | 9.70565 | – |